createdAt,value
2019-05-23T00:00:12.132Z,13.60
2019-05-23T00:02:53.000Z,14.73
2019-05-23T00:05:40.823Z,11.40
2019-05-23T00:08:15.977Z,12.50
2019-05-23T00:10:46.211Z,13.03
2019-05-23T00:13:32.575Z,13.23
2019-05-23T00:16:01.357Z,11.17
2019-05-23T00:18:30.606Z,11.27
2019-05-23T00:21:01.741Z,10.80
2019-05-23T00:23:32.183Z,14.93
2019-05-23T00:26:00.906Z,13.70
2019-05-23T00:28:31.334Z,11.63
2019-05-23T00:31:06.104Z,12.60
2019-05-23T00:33:37.322Z,11.63
2019-05-23T00:36:05.392Z,11.23
2019-05-23T00:38:34.799Z,11.70
2019-05-23T00:41:03.306Z,11.10
2019-05-23T00:43:32.046Z,12.67
2019-05-23T00:46:00.865Z,12.27
2019-05-23T00:48:30.242Z,9.60
2019-05-23T00:50:58.647Z,10.77
2019-05-23T00:53:28.507Z,11.40
2019-05-23T00:55:57.799Z,11.37
2019-05-23T00:58:26.892Z,10.80
2019-05-23T01:00:57.336Z,15.00
2019-05-23T01:03:27.920Z,11.50
2019-05-23T01:05:57.407Z,12.13
2019-05-23T01:08:26.200Z,12.13
2019-05-23T01:10:55.279Z,10.63
2019-05-23T01:13:24.659Z,11.77
2019-05-23T01:15:55.233Z,11.27
2019-05-23T01:18:24.840Z,13.83
2019-05-23T01:21:30.743Z,12.90
2019-05-23T01:24:17.458Z,14.90
2019-05-23T01:26:46.189Z,14.97
2019-05-23T01:29:14.802Z,11.87
2019-05-23T01:31:45.751Z,11.67
2019-05-23T01:34:14.902Z,12.83
2019-05-23T01:36:43.721Z,12.00
2019-05-23T01:39:12.373Z,13.23
2019-05-23T01:41:41.370Z,12.83
2019-05-23T01:44:10.861Z,13.30
2019-05-23T01:46:39.898Z,13.03
2019-05-23T01:49:09.253Z,13.90
2019-05-23T01:51:38.615Z,13.17
2019-05-23T01:54:07.808Z,14.63
2019-05-23T01:56:37.379Z,13.20
2019-05-23T01:59:06.951Z,13.77
2019-05-23T02:01:38.471Z,14.10
2019-05-23T02:04:07.540Z,14.57
2019-05-23T02:06:36.254Z,16.50
2019-05-23T02:09:06.452Z,15.93
2019-05-23T02:11:36.084Z,18.77
2019-05-23T02:14:12.977Z,16.67
2019-05-23T02:16:43.432Z,15.73
2019-05-23T02:19:14.178Z,14.40
2019-05-23T02:21:43.262Z,15.43
2019-05-23T02:24:12.145Z,14.73
2019-05-23T02:26:41.181Z,14.33
2019-05-23T02:29:10.327Z,15.90
2019-05-23T02:31:38.901Z,14.50
2019-05-23T02:34:07.565Z,16.63
2019-05-23T02:36:40.418Z,14.53
2019-05-23T02:39:33.957Z,13.90
2019-05-23T02:42:20.579Z,14.47
2019-05-23T02:44:50.594Z,14.27
2019-05-23T02:47:26.612Z,16.17
2019-05-23T02:49:56.399Z,14.50
2019-05-23T02:52:28.781Z,14.73
2019-05-23T02:54:57.133Z,13.87
2019-05-23T02:57:26.800Z,15.40
2019-05-23T02:59:56.849Z,14.10
2019-05-23T03:02:54.800Z,14.30
2019-05-23T03:05:25.290Z,15.03
2019-05-23T03:07:54.789Z,13.60
2019-05-23T03:10:24.132Z,16.57
2019-05-23T03:12:54.604Z,14.43
2019-05-23T03:15:24.947Z,15.80
2019-05-23T03:17:55.395Z,13.83
2019-05-23T03:20:24.017Z,14.00
2019-05-23T03:22:58.499Z,13.77
2019-05-23T03:25:49.297Z,17.27
2019-05-23T03:28:18.393Z,15.07
2019-05-23T03:30:48.213Z,14.43
2019-05-23T03:33:16.522Z,14.30
2019-05-23T03:35:47.816Z,13.77
2019-05-23T03:38:16.472Z,14.40
2019-05-23T03:40:45.622Z,13.50
2019-05-23T03:43:13.747Z,16.57
2019-05-23T03:45:47.024Z,14.03
2019-05-23T03:48:16.481Z,13.83
2019-05-23T03:50:46.263Z,13.80
2019-05-23T03:53:15.103Z,13.90
2019-05-23T03:55:43.233Z,14.20
2019-05-23T03:58:13.100Z,13.93
2019-05-23T04:00:48.795Z,14.83
2019-05-23T04:03:17.565Z,14.27
2019-05-23T04:05:45.965Z,13.57
2019-05-23T04:08:14.389Z,14.23
2019-05-23T04:10:42.747Z,16.63
2019-05-23T04:13:10.859Z,14.93
2019-05-23T04:15:40.139Z,18.87
2019-05-23T04:18:08.790Z,19.20
2019-05-23T04:20:36.999Z,21.43
2019-05-23T04:23:05.843Z,21.63
2019-05-23T04:25:34.153Z,15.20
2019-05-23T04:28:02.794Z,14.23
2019-05-23T04:30:31.981Z,23.43
2019-05-23T04:33:00.332Z,27.17
2019-05-23T04:35:28.427Z,23.90
2019-05-23T04:37:56.557Z,16.73
2019-05-23T04:40:25.017Z,13.33
2019-05-23T04:42:54.954Z,12.87
2019-05-23T04:45:23.211Z,13.10
2019-05-23T04:47:51.504Z,12.60
2019-05-23T04:50:20.319Z,12.63
2019-05-23T04:52:48.710Z,12.37
2019-05-23T04:55:16.862Z,11.87
2019-05-23T04:57:45.549Z,11.57
2019-05-23T05:00:15.018Z,12.43
2019-05-23T05:02:44.871Z,10.73
2019-05-23T05:05:13.842Z,12.23
2019-05-23T05:07:42.278Z,12.13
2019-05-23T05:10:12.142Z,12.70
2019-05-23T05:12:40.707Z,10.40
2019-05-23T05:15:10.304Z,10.50
2019-05-23T05:17:38.852Z,12.23
2019-05-23T05:20:07.586Z,10.83
2019-05-23T05:22:36.297Z,10.33
2019-05-23T05:25:05.642Z,10.77
2019-05-23T05:27:35.169Z,10.50
2019-05-23T05:30:06.327Z,10.70
2019-05-23T05:32:44.222Z,10.30
2019-05-23T05:35:04.789Z,10.73
2019-05-23T05:37:33.030Z,9.67
2019-05-23T05:40:01.202Z,9.87
2019-05-23T05:42:30.286Z,10.57
2019-05-23T05:44:58.550Z,8.70
2019-05-23T05:47:27.004Z,8.20
2019-05-23T05:49:55.682Z,8.27
2019-05-23T05:52:24.828Z,10.20
2019-05-23T05:54:53.446Z,12.17
2019-05-23T05:57:22.092Z,11.80
2019-05-23T05:59:54.950Z,9.17
2019-05-23T06:02:25.035Z,8.27
2019-05-23T06:04:53.256Z,8.40
2019-05-23T06:07:33.371Z,8.87
2019-05-23T06:10:02.625Z,8.27
2019-05-23T06:12:32.074Z,8.17
2019-05-23T06:15:00.160Z,8.33
2019-05-23T06:17:29.810Z,9.57
2019-05-23T06:19:57.768Z,9.20
2019-05-23T06:22:27.870Z,9.50
2019-05-23T06:24:58.196Z,8.63
2019-05-23T06:27:26.676Z,8.60
2019-05-23T06:29:55.604Z,12.73
2019-05-23T06:32:25.958Z,8.57
2019-05-23T06:34:56.079Z,8.70
2019-05-23T06:37:24.458Z,10.67
2019-05-23T06:39:52.634Z,13.13
2019-05-23T06:42:20.921Z,9.83
2019-05-23T06:44:50.318Z,9.10
2019-05-23T06:47:19.202Z,9.23
2019-05-23T06:49:47.377Z,9.53
2019-05-23T06:52:16.178Z,10.50
2019-05-23T06:54:45.038Z,10.17
2019-05-23T06:57:15.733Z,8.50
2019-05-23T06:59:43.948Z,9.17
2019-05-23T07:02:12.108Z,8.50
2019-05-23T07:04:40.349Z,9.13
2019-05-23T07:07:09.445Z,9.30
2019-05-23T07:09:37.697Z,9.37
2019-05-23T07:12:07.545Z,8.93
2019-05-23T07:14:36.783Z,8.90
2019-05-23T07:17:05.796Z,9.03
2019-05-23T07:19:34.290Z,9.27
2019-05-23T07:22:03.232Z,11.10
2019-05-23T07:24:32.294Z,8.37
2019-05-23T07:27:00.891Z,9.03
2019-05-23T07:29:30.257Z,9.30
2019-05-23T07:31:58.944Z,7.90
2019-05-23T07:34:27.253Z,9.93
2019-05-23T07:36:55.698Z,10.17
2019-05-23T07:39:24.922Z,8.80
2019-05-23T07:41:53.438Z,9.10
2019-05-23T07:44:22.662Z,8.67
2019-05-23T07:46:54.777Z,7.67
2019-05-23T07:49:23.552Z,7.93
2019-05-23T07:51:51.611Z,7.53
2019-05-23T07:54:33.198Z,7.03
2019-05-23T07:57:02.813Z,7.80
2019-05-23T07:59:31.516Z,8.33
2019-05-23T08:02:11.723Z,9.13
2019-05-23T08:04:39.817Z,6.97
2019-05-23T08:07:09.471Z,9.67
2019-05-23T08:09:38.049Z,9.10
2019-05-23T08:12:06.782Z,7.60
2019-05-23T08:14:34.911Z,8.30
2019-05-23T08:17:03.269Z,7.57
2019-05-23T08:19:48.166Z,8.40
2019-05-23T08:22:02.094Z,7.87
2019-05-23T08:24:30.100Z,7.67
2019-05-23T08:26:59.191Z,6.53
2019-05-23T08:29:28.042Z,7.13
2019-05-23T08:31:56.132Z,7.07
2019-05-23T08:34:40.629Z,6.60
2019-05-23T08:36:55.589Z,8.03
2019-05-23T08:39:25.181Z,6.50
2019-05-23T08:41:54.119Z,6.30
2019-05-23T08:44:24.169Z,7.10
2019-05-23T08:46:52.788Z,7.40
2019-05-23T08:49:23.255Z,7.43
2019-05-23T08:51:51.855Z,7.27
2019-05-23T08:54:20.232Z,7.37
2019-05-23T08:56:48.376Z,7.27
2019-05-23T08:59:16.718Z,7.40
2019-05-23T09:01:45.182Z,7.83
2019-05-23T09:04:13.781Z,8.03
2019-05-23T09:06:42.447Z,7.80
2019-05-23T09:09:28.287Z,7.80
2019-05-23T09:11:43.340Z,9.57
2019-05-23T09:14:11.507Z,7.43
2019-05-23T09:16:39.727Z,8.07
2019-05-23T09:19:08.307Z,7.30
2019-05-23T09:21:38.482Z,7.93
2019-05-23T09:24:06.864Z,8.67
2019-05-23T09:26:35.137Z,7.37
2019-05-23T09:29:04.274Z,7.17
2019-05-23T09:31:32.679Z,7.30
2019-05-23T09:34:00.869Z,8.50
2019-05-23T09:36:29.275Z,6.47
2019-05-23T09:38:57.340Z,8.60
2019-05-23T09:41:25.556Z,6.97
2019-05-23T09:43:53.590Z,8.77
2019-05-23T09:46:21.827Z,7.73
2019-05-23T09:48:50.685Z,6.73
2019-05-23T09:51:18.880Z,6.77
2019-05-23T09:53:47.824Z,7.17
2019-05-23T09:56:16.362Z,8.40
2019-05-23T09:58:44.466Z,8.07
2019-05-23T10:01:14.153Z,11.10
2019-05-23T10:03:42.215Z,6.93
2019-05-23T10:06:11.197Z,5.70
2019-05-23T10:08:39.846Z,5.63
2019-05-23T10:11:08.625Z,5.60
2019-05-23T10:13:39.335Z,7.57
2019-05-23T10:16:10.467Z,7.10
2019-05-23T10:18:39.237Z,6.47
2019-05-23T10:21:07.480Z,7.47
2019-05-23T10:23:36.178Z,7.47
2019-05-23T10:26:05.109Z,8.03
2019-05-23T10:28:33.907Z,9.27
2019-05-23T10:31:01.959Z,8.27
2019-05-23T10:33:30.273Z,9.10
2019-05-23T10:36:00.902Z,6.80
2019-05-23T10:38:29.381Z,6.60
2019-05-23T10:40:58.547Z,9.60
2019-05-23T10:43:26.864Z,8.20
2019-05-23T10:45:54.992Z,7.77
2019-05-23T10:48:23.499Z,9.03
2019-05-23T10:50:52.330Z,7.80
2019-05-23T10:53:21.108Z,9.23
2019-05-23T10:55:49.676Z,10.07
2019-05-23T10:58:17.880Z,7.40
2019-05-23T11:00:47.497Z,10.63
2019-05-23T11:03:29.399Z,5.37
2019-05-23T11:06:16.140Z,6.30
2019-05-23T11:08:53.231Z,6.87
2019-05-23T11:11:25.525Z,6.57
2019-05-23T11:14:03.069Z,12.27
2019-05-23T11:16:32.182Z,5.10
2019-05-23T11:19:00.869Z,5.80
2019-05-23T11:21:29.784Z,5.70
2019-05-23T11:23:58.141Z,6.63
2019-05-23T11:26:27.589Z,5.73
2019-05-23T11:28:56.359Z,5.27
2019-05-23T11:31:25.441Z,5.93
2019-05-23T11:33:53.800Z,6.00
2019-05-23T11:36:34.936Z,6.30
2019-05-23T11:38:52.952Z,5.97
2019-05-23T11:41:21.623Z,6.90
2019-05-23T11:43:50.707Z,7.00
2019-05-23T11:46:31.590Z,10.73
2019-05-23T11:49:00.352Z,9.90
2019-05-23T11:51:29.066Z,5.67
2019-05-23T11:54:07.768Z,7.00
2019-05-23T11:56:28.532Z,6.70
2019-05-23T11:59:00.896Z,7.37
2019-05-23T12:01:48.995Z,6.63
2019-05-23T12:04:21.918Z,5.97
2019-05-23T12:07:01.765Z,6.00
2019-05-23T12:09:29.795Z,7.17
2019-05-23T12:11:57.990Z,6.60
2019-05-23T12:14:26.287Z,6.73
2019-05-23T12:16:55.846Z,6.27
2019-05-23T12:19:24.887Z,7.80
2019-05-23T12:21:53.010Z,6.30
2019-05-23T12:24:21.641Z,4.73
2019-05-23T12:26:49.712Z,5.97
2019-05-23T12:29:17.841Z,3.80
2019-05-23T12:31:49.123Z,5.00
2019-05-23T12:34:15.718Z,4.60
2019-05-23T12:36:44.471Z,5.07
2019-05-23T12:39:13.078Z,4.47
2019-05-23T12:41:41.949Z,4.97
2019-05-23T12:44:10.589Z,4.60
2019-05-23T12:46:39.605Z,8.10
2019-05-23T12:49:20.456Z,3.67
2019-05-23T12:51:48.688Z,5.57
2019-05-23T12:54:17.249Z,4.20
2019-05-23T12:56:49.064Z,4.30
2019-05-23T12:59:17.024Z,3.77
2019-05-23T13:01:47.196Z,3.83
2019-05-23T13:04:16.863Z,4.20
2019-05-23T13:06:45.222Z,5.07
2019-05-23T13:09:13.651Z,4.20
2019-05-23T13:11:42.768Z,4.87
2019-05-23T13:14:11.012Z,4.90
2019-05-23T13:16:39.919Z,5.07
2019-05-23T13:19:08.152Z,4.30
2019-05-23T13:21:36.372Z,3.50
2019-05-23T13:24:05.079Z,6.20
2019-05-23T13:26:33.229Z,4.63
2019-05-23T13:29:02.085Z,4.97
2019-05-23T13:31:31.229Z,4.47
2019-05-23T13:33:59.426Z,3.80
2019-05-23T13:36:28.171Z,3.90
2019-05-23T13:38:59.442Z,8.03
2019-05-23T13:41:29.372Z,8.93
2019-05-23T13:43:59.812Z,4.63
2019-05-23T13:46:29.161Z,4.37
2019-05-23T13:48:58.781Z,3.80
2019-05-23T13:51:27.664Z,3.60
2019-05-23T13:53:56.008Z,3.60
2019-05-23T13:56:24.578Z,3.60
2019-05-23T13:58:53.544Z,4.10
2019-05-23T14:01:22.359Z,7.80
2019-05-23T14:03:51.035Z,4.70
2019-05-23T14:06:19.485Z,4.03
2019-05-23T14:08:48.161Z,3.77
2019-05-23T14:11:16.922Z,9.43
2019-05-23T14:13:46.712Z,6.77
2019-05-23T14:16:15.153Z,3.77
2019-05-23T14:18:44.244Z,5.00
2019-05-23T14:21:14.720Z,4.43
2019-05-23T14:23:44.833Z,3.33
2019-05-23T14:26:13.886Z,6.80
2019-05-23T14:28:43.767Z,4.53
2019-05-23T14:31:23.643Z,4.63
2019-05-23T14:33:55.174Z,4.70
2019-05-23T14:36:32.983Z,3.90
2019-05-23T14:39:02.775Z,5.93
2019-05-23T14:41:45.342Z,9.97
